createdAt,value
2023-02-13T00:11:35.796Z,68.75
2023-02-13T00:33:18.846Z,60.55
2023-02-13T00:55:01.772Z,59.19
2023-02-13T01:16:44.679Z,58.27
2023-02-13T01:38:27.809Z,68.39
2023-02-13T02:00:16.266Z,55.94
2023-02-13T02:22:42.360Z,66.31
2023-02-13T02:44:38.437Z,59.38
2023-02-13T03:06:26.866Z,64.33
2023-02-13T03:28:35.854Z,60.85
2023-02-13T03:50:19.718Z,63.70
2023-02-13T04:22:01.518Z,63.65
2023-02-13T04:43:47.536Z,67.80
2023-02-13T05:05:33.400Z,70.40
2023-02-13T05:27:19.123Z,72.64
2023-02-13T05:49:06.675Z,73.94
2023-02-13T06:10:53.145Z,77.20
2023-02-13T06:32:39.124Z,78.83
2023-02-13T06:54:34.020Z,80.20
2023-02-13T07:16:30.698Z,77.03
2023-02-13T07:38:16.752Z,75.97
2023-02-13T08:00:04.677Z,76.16
2023-02-13T08:21:59.113Z,77.17
2023-02-13T08:43:46.430Z,76.86
2023-02-13T09:05:33.045Z,78.50
2023-02-13T09:27:26.565Z,70.28
2023-02-13T09:49:22.065Z,65.94
2023-02-13T10:11:22.227Z,63.69
2023-02-13T10:33:20.767Z,65.75
2023-02-13T10:55:48.065Z,65.56
2023-02-13T11:17:38.620Z,65.02
2023-02-13T11:39:28.025Z,63.57
2023-02-13T12:01:29.809Z,64.36
2023-02-13T12:23:29.893Z,64.67
2023-02-13T12:45:29.513Z,61.92
2023-02-13T13:07:27.570Z,61.95
2023-02-13T13:29:19.964Z,60.97
2023-02-13T13:51:06.961Z,61.87
2023-02-13T14:13:02.676Z,62.49
2023-02-13T14:35:00.270Z,60.57
2023-02-13T14:56:48.665Z,62.80
2023-02-13T15:18:43.072Z,59.05
2023-02-13T15:40:32.279Z,63.66
2023-02-13T16:02:22.486Z,62.75
2023-02-13T16:24:10.397Z,65.73
2023-02-13T16:46:11.024Z,58.64
2023-02-13T17:07:59.588Z,63.80
2023-02-13T17:29:45.470Z,62.11
2023-02-13T17:51:31.704Z,63.87
2023-02-13T18:13:17.631Z,66.08
2023-02-13T18:35:03.801Z,60.69
2023-02-13T18:56:49.621Z,57.44
2023-02-13T19:18:38.897Z,62.57
2023-02-13T19:40:25.538Z,59.27
2023-02-13T20:02:17.278Z,66.06
2023-02-13T20:24:04.089Z,56.93
2023-02-13T20:45:50.124Z,60.23
2023-02-13T21:07:36.048Z,62.13
2023-02-13T21:29:22.165Z,60.99
2023-02-13T21:51:13.009Z,58.66
2023-02-13T22:12:58.799Z,58.95
2023-02-13T22:34:45.067Z,60.22
2023-02-13T22:56:32.517Z,64.56
2023-02-13T23:18:18.276Z,62.70
2023-02-13T23:40:06.011Z,60.71
